TimeCST,TemperatureF,Dew PointF,Humidity,Sea Level PressureIn,VisibilityMPH,Wind Direction,Wind SpeedMPH,Gust SpeedMPH,PrecipitationIn,Events,Conditions,WindDirDegrees,DateUTC
12:53 AM,37.0,28.9,73,30.14,10.0,South,11.5,-,N/A,,Clear,170,2013-01-19 06:53:00
1:53 AM,35.1,28.9,78,30.14,10.0,SSE,10.4,-,N/A,,Clear,160,2013-01-19 07:53:00
2:53 AM,34.0,28.9,82,30.12,10.0,South,11.5,-,N/A,,Clear,170,2013-01-19 08:53:00
3:53 AM,36.0,28.9,76,30.11,10.0,South,11.5,-,N/A,,Clear,190,2013-01-19 09:53:00
4:53 AM,34.0,28.0,79,30.10,10.0,South,12.7,-,N/A,,Clear,190,2013-01-19 10:53:00
5:53 AM,33.1,28.0,82,30.11,10.0,South,11.5,-,N/A,,Clear,190,2013-01-19 11:53:00
6:53 AM,33.1,28.0,82,30.12,10.0,SSW,12.7,-,N/A,,Clear,200,2013-01-19 12:53:00
7:53 AM,33.1,28.0,82,30.12,10.0,SSW,13.8,-,N/A,,Clear,200,2013-01-19 13:53:00
8:53 AM,37.9,30.0,73,30.13,10.0,SSW,11.5,-,N/A,,Clear,200,2013-01-19 14:53:00
9:53 AM,42.1,32.0,67,30.16,10.0,SW,10.4,-,N/A,,Clear,220,2013-01-19 15:53:00
10:53 AM,46.9,32.0,56,30.18,10.0,SW,6.9,-,N/A,,Clear,230,2013-01-19 16:53:00
11:53 AM,52.0,30.9,45,30.16,10.0,NW,5.8,-,N/A,,Clear,310,2013-01-19 17:53:00
12:53 PM,55.9,32.0,40,30.14,10.0,NW,9.2,-,N/A,,Clear,320,2013-01-19 18:53:00
1:53 PM,61.0,30.0,31,30.12,10.0,North,8.1,-,N/A,,Clear,360,2013-01-19 19:53:00
2:53 PM,62.1,28.9,29,30.12,10.0,ENE,3.5,-,N/A,,Clear,70,2013-01-19 20:53:00
3:53 PM,64.0,28.0,26,30.12,10.0,NNE,3.5,-,N/A,,Clear,30,2013-01-19 21:53:00
4:53 PM,64.0,28.9,27,30.14,10.0,Calm,Calm,-,N/A,,Clear,0,2013-01-19 22:53:00
5:53 PM,54.0,28.9,38,30.17,10.0,Calm,Calm,-,N/A,,Clear,0,2013-01-19 23:53:00
6:53 PM,48.9,27.0,43,30.21,10.0,NNE,6.9,-,N/A,,Clear,20,2013-01-20 00:53:00
7:53 PM,46.0,24.1,42,30.23,10.0,NNE,4.6,-,N/A,,Clear,20,2013-01-20 01:53:00
8:53 PM,45.0,24.1,44,30.24,10.0,NNE,4.6,-,N/A,,Clear,20,2013-01-20 02:53:00
9:53 PM,37.9,25.0,60,30.26,10.0,NNW,6.9,-,N/A,,Clear,340,2013-01-20 03:53:00
10:53 PM,37.9,26.1,62,30.26,10.0,NW,3.5,-,N/A,,Clear,320,2013-01-20 04:53:00
11:53 PM,35.1,25.0,67,30.25,10.0,NNW,4.6,-,N/A,,Clear,340,2013-01-20 05:53:00